sensor_id;sensor_type;location;lat;lon;timestamp;P1;durP1;ratioP1;P2;durP2;ratioP2
64313;SDS011;50650;48.180;11.524;2023-05-10T00:00:09;2.15;;;0.60;;
64313;SDS011;50650;48.180;11.524;2023-05-10T00:02:37;1.38;;;0.70;;
64313;SDS011;50650;48.180;11.524;2023-05-10T00:05:04;0.60;;;0.47;;
64313;SDS011;50650;48.180;11.524;2023-05-10T00:07:31;1.15;;;0.88;;
64313;SDS011;50650;48.180;11.524;2023-05-10T00:09:58;2.47;;;0.82;;
64313;SDS011;50650;48.180;11.524;2023-05-10T00:12:25;1.13;;;0.63;;
64313;SDS011;50650;48.180;11.524;2023-05-10T00:14:51;0.75;;;0.60;;
64313;SDS011;50650;48.180;11.524;2023-05-10T00:17:18;1.17;;;0.90;;
64313;SDS011;50650;48.180;11.524;2023-05-10T00:19:44;1.35;;;0.60;;
64313;SDS011;50650;48.180;11.524;2023-05-10T00:22:10;0.82;;;0.60;;
64313;SDS011;50650;48.180;11.524;2023-05-10T00:24:37;1.90;;;0.70;;
64313;SDS011;50650;48.180;11.524;2023-05-10T00:27:04;1.17;;;0.65;;
64313;SDS011;50650;48.180;11.524;2023-05-10T00:29:31;1.08;;;0.60;;
64313;SDS011;50650;48.180;11.524;2023-05-10T00:31:58;4.47;;;1.02;;
64313;SDS011;50650;48.180;11.524;2023-05-10T00:34:25;2.38;;;0.82;;
64313;SDS011;50650;48.180;11.524;2023-05-10T00:36:52;1.15;;;0.60;;
64313;SDS011;50650;48.180;11.524;2023-05-10T00:39:18;1.95;;;0.70;;
64313;SDS011;50650;48.180;11.524;2023-05-10T00:41:45;0.50;;;0.50;;
64313;SDS011;50650;48.180;11.524;2023-05-10T00:44:12;0.95;;;0.50;;
64313;SDS011;50650;48.180;11.524;2023-05-10T00:46:39;1.85;;;0.50;;
64313;SDS011;50650;48.180;11.524;2023-05-10T00:49:05;0.52;;;0.40;;
64313;SDS011;50650;48.180;11.524;2023-05-10T00:51:32;2.55;;;0.60;;
64313;SDS011;50650;48.180;11.524;2023-05-10T00:53:58;3.70;;;0.50;;
64313;SDS011;50650;48.180;11.524;2023-05-10T00:56:25;0.70;;;0.50;;
64313;SDS011;50650;48.180;11.524;2023-05-10T00:58:51;1.27;;;0.40;;
64313;SDS011;50650;48.180;11.524;2023-05-10T01:01:20;1.98;;;0.70;;
64313;SDS011;50650;48.180;11.524;2023-05-10T01:03:46;0.95;;;0.50;;
64313;SDS011;50650;48.180;11.524;2023-05-10T01:06:12;1.15;;;0.70;;
64313;SDS011;50650;48.180;11.524;2023-05-10T01:08:39;0.60;;;0.43;;
64313;SDS011;50650;48.180;11.524;2023-05-10T01:11:05;0.70;;;0.40;;
64313;SDS011;50650;48.180;11.524;2023-05-10T01:13:32;1.25;;;0.40;;
64313;SDS011;50650;48.180;11.524;2023-05-10T01:16:00;0.90;;;0.40;;
64313;SDS011;50650;48.180;11.524;2023-05-10T01:18:29;0.70;;;0.40;;
64313;SDS011;50650;48.180;11.524;2023-05-10T01:20:59;0.85;;;0.50;;
64313;SDS011;50650;48.180;11.524;2023-05-10T01:29:50;1.25;;;0.55;;
64313;SDS011;50650;48.180;11.524;2023-05-10T01:32:37;1.50;;;0.52;;
64313;SDS011;50650;48.180;11.524;2023-05-10T01:35:07;0.40;;;0.40;;
64313;SDS011;50650;48.180;11.524;2023-05-10T01:37:39;1.65;;;0.40;;
64313;SDS011;50650;48.180;11.524;2023-05-10T01:40:08;1.52;;;0.43;;
64313;SDS011;50650;48.180;11.524;2023-05-10T01:42:40;1.50;;;0.40;;
64313;SDS011;50650;48.180;11.524;2023-05-10T01:45:14;1.88;;;0.50;;
64313;SDS011;50650;48.180;11.524;2023-05-10T01:47:48;0.70;;;0.40;;
64313;SDS011;50650;48.180;11.524;2023-05-10T01:50:18;0.60;;;0.40;;
64313;SDS011;50650;48.180;11.524;2023-05-10T01:52:47;0.77;;;0.38;;
64313;SDS011;50650;48.180;11.524;2023-05-10T01:55:18;2.05;;;0.40;;
64313;SDS011;50650;48.180;11.524;2023-05-10T01:57:46;2.70;;;0.40;;
64313;SDS011;50650;48.180;11.524;2023-05-10T02:00:14;2.35;;;0.40;;
64313;SDS011;50650;48.180;11.524;2023-05-10T02:02:42;0.30;;;0.30;;
64313;SDS011;50650;48.180;11.524;2023-05-10T02:05:13;2.00;;;0.30;;
64313;SDS011;50650;48.180;11.524;2023-05-10T02:07:40;0.40;;;0.20;;
64313;SDS011;50650;48.180;11.524;2023-05-10T02:10:09;0.38;;;0.30;;
64313;SDS011;50650;48.180;11.524;2023-05-10T02:12:36;1.15;;;0.40;;
64313;SDS011;50650;48.180;11.524;2023-05-10T02:15:05;0.30;;;0.30;;
64313;SDS011;50650;48.180;11.524;2023-05-10T02:17:33;2.45;;;0.63;;
64313;SDS011;50650;48.180;11.524;2023-05-10T02:20:01;1.50;;;0.50;;
64313;SDS011;50650;48.180;11.524;2023-05-10T02:22:30;1.73;;;0.52;;
64313;SDS011;50650;48.180;11.524;2023-05-10T02:24:57;1.15;;;0.40;;
64313;SDS011;50650;48.180;11.524;2023-05-10T02:27:24;0.40;;;0.30;;
64313;SDS011;50650;48.180;11.524;2023-05-10T02:29:51;0.50;;;0.40;;
64313;SDS011;50650;48.180;11.524;2023-05-10T02:32:19;0.40;;;0.40;;
64313;SDS011;50650;48.180;11.524;2023-05-10T02:34:45;5.78;;;0.40;;
64313;SDS011;50650;48.180;11.524;2023-05-10T02:37:17;0.63;;;0.40;;
64313;SDS011;50650;48.180;11.524;2023-05-10T02:39:46;2.22;;;0.52;;
64313;SDS011;50650;48.180;11.524;2023-05-10T02:42:14;0.43;;;0.30;;
64313;SDS011;50650;48.180;11.524;2023-05-10T02:44:43;0.30;;;0.30;;
64313;SDS011;50650;48.180;11.524;2023-05-10T02:47:11;0.82;;;0.50;;
64313;SDS011;50650;48.180;11.524;2023-05-10T02:49:38;5.30;;;0.55;;
64313;SDS011;50650;48.180;11.524;2023-05-10T02:52:05;2.13;;;0.47;;
64313;SDS011;50650;48.180;11.524;2023-05-10T02:54:33;0.45;;;0.30;;
64313;SDS011;50650;48.180;11.524;2023-05-10T02:57:04;2.05;;;0.30;;
64313;SDS011;50650;48.180;11.524;2023-05-10T02:59:31;0.40;;;0.38;;
64313;SDS011;50650;48.180;11.524;2023-05-10T03:01:58;0.60;;;0.30;;
64313;SDS011;50650;48.180;11.524;2023-05-10T03:04:24;0.50;;;0.40;;
64313;SDS011;50650;48.180;11.524;2023-05-10T03:06:51;1.92;;;0.40;;
64313;SDS011;50650;48.180;11.524;2023-05-10T03:09:17;0.75;;;0.40;;
64313;SDS011;50650;48.180;11.524;2023-05-10T03:11:47;0.70;;;0.40;;
64313;SDS011;50650;48.180;11.524;2023-05-10T03:17:10;0.75;;;0.40;;
64313;SDS011;50650;48.180;11.524;2023-05-10T03:19:43;0.95;;;0.45;;
64313;SDS011;50650;48.180;11.524;2023-05-10T03:22:12;0.60;;;0.30;;
64313;SDS011;50650;48.180;11.524;2023-05-10T03:24:45;0.50;;;0.30;;
64313;SDS011;50650;48.180;11.524;2023-05-10T03:27:12;2.85;;;0.40;;
64313;SDS011;50650;48.180;11.524;2023-05-10T03:29:41;0.50;;;0.40;;
64313;SDS011;50650;48.180;11.524;2023-05-10T03:32:08;0.60;;;0.60;;
64313;SDS011;50650;48.180;11.524;2023-05-10T03:34:35;0.60;;;0.40;;
64313;SDS011;50650;48.180;11.524;2023-05-10T03:37:07;0.50;;;0.30;;
64313;SDS011;50650;48.180;11.524;2023-05-10T03:39:33;0.40;;;0.32;;
64313;SDS011;50650;48.180;11.524;2023-05-10T03:42:00;0.30;;;0.30;;
64313;SDS011;50650;48.180;11.524;2023-05-10T03:44:27;1.80;;;0.47;;
64313;SDS011;50650;48.180;11.524;2023-05-10T03:46:54;0.60;;;0.38;;
64313;SDS011;50650;48.180;11.524;2023-05-10T03:49:21;1.20;;;0.65;;
64313;SDS011;50650;48.180;11.524;2023-05-10T03:51:48;2.22;;;0.47;;
64313;SDS011;50650;48.180;11.524;2023-05-10T03:54:14;1.90;;;0.47;;
64313;SDS011;50650;48.180;11.524;2023-05-10T03:56:41;2.55;;;0.30;;
64313;SDS011;50650;48.180;11.524;2023-05-10T03:59:07;0.40;;;0.30;;
64313;SDS011;50650;48.180;11.524;2023-05-10T04:01:34;0.95;;;0.47;;
64313;SDS011;50650;48.180;11.524;2023-05-10T04:04:01;1.20;;;0.40;;
64313;SDS011;50650;48.180;11.524;2023-05-10T04:06:28;1.05;;;0.30;;
64313;SDS011;50650;48.180;11.524;2023-05-10T04:08:54;4.60;;;0.40;;
64313;SDS011;50650;48.180;11.524;2023-05-10T04:11:21;0.50;;;0.40;;
64313;SDS011;50650;48.180;11.524;2023-05-10T04:13:47;1.38;;;0.40;;
64313;SDS011;50650;48.180;11.524;2023-05-10T04:16:14;0.65;;;0.38;;
64313;SDS011;50650;48.180;11.524;2023-05-10T04:18:40;0.30;;;0.30;;
64313;SDS011;50650;48.180;11.524;2023-05-10T04:21:12;0.88;;;0.43;;
64313;SDS011;50650;48.180;11.524;2023-05-10T04:23:38;1.33;;;0.30;;
64313;SDS011;50650;48.180;11.524;2023-05-10T04:26:05;0.52;;;0.38;;
64313;SDS011;50650;48.180;11.524;2023-05-10T04:28:31;0.65;;;0.40;;
64313;SDS011;50650;48.180;11.524;2023-05-10T04:31:01;0.20;;;0.20;;
64313;SDS011;50650;48.180;11.524;2023-05-10T04:33:28;0.50;;;0.40;;
64313;SDS011;50650;48.180;11.524;2023-05-10T04:35:55;1.25;;;0.40;;
64313;SDS011;50650;48.180;11.524;2023-05-10T04:38:23;0.73;;;0.40;;
64313;SDS011;50650;48.180;11.524;2023-05-10T04:40:49;0.50;;;0.40;;
64313;SDS011;50650;48.180;11.524;2023-05-10T04:43:15;0.90;;;0.30;;
64313;SDS011;50650;48.180;11.524;2023-05-10T04:45:42;0.60;;;0.30;;
64313;SDS011;50650;48.180;11.524;2023-05-10T04:48:08;0.30;;;0.30;;
64313;SDS011;50650;48.180;11.524;2023-05-10T04:50:35;1.15;;;0.32;;
64313;SDS011;50650;48.180;11.524;2023-05-10T04:53:01;0.50;;;0.40;;
64313;SDS011;50650;48.180;11.524;2023-05-10T04:55:29;2.13;;;0.50;;
64313;SDS011;50650;48.180;11.524;2023-05-10T04:57:55;0.55;;;0.40;;
64313;SDS011;50650;48.180;11.524;2023-05-10T05:00:24;1.05;;;0.30;;
64313;SDS011;50650;48.180;11.524;2023-05-10T05:02:50;1.25;;;0.50;;
64313;SDS011;50650;48.180;11.524;2023-05-10T05:05:17;1.52;;;0.40;;
64313;SDS011;50650;48.180;11.524;2023-05-10T05:07:43;0.95;;;0.30;;
64313;SDS011;50650;48.180;11.524;2023-05-10T05:10:09;0.40;;;0.30;;
64313;SDS011;50650;48.180;11.524;2023-05-10T05:12:37;1.05;;;0.40;;
64313;SDS011;50650;48.180;11.524;2023-05-10T05:15:04;1.33;;;0.40;;
64313;SDS011;50650;48.180;11.524;2023-05-10T05:17:31;1.15;;;0.50;;
64313;SDS011;50650;48.180;11.524;2023-05-10T05:19:57;0.73;;;0.40;;
64313;SDS011;50650;48.180;11.524;2023-05-10T05:22:24;0.60;;;0.20;;
64313;SDS011;50650;48.180;11.524;2023-05-10T05:24:52;0.50;;;0.30;;
64313;SDS011;50650;48.180;11.524;2023-05-10T05:27:19;0.82;;;0.30;;
64313;SDS011;50650;48.180;11.524;2023-05-10T05:29:48;0.95;;;0.30;;
64313;SDS011;50650;48.180;11.524;2023-05-10T05:32:15;4.78;;;0.30;;
64313;SDS011;50650;48.180;11.524;2023-05-10T05:34:41;0.93;;;0.30;;
64313;SDS011;50650;48.180;11.524;2023-05-10T05:37:07;0.47;;;0.20;;
64313;SDS011;50650;48.180;11.524;2023-05-10T05:39:38;3.45;;;0.40;;
64313;SDS011;50650;48.180;11.524;2023-05-10T05:42:05;4.07;;;0.40;;
64313;SDS011;50650;48.180;11.524;2023-05-10T05:44:31;2.30;;;0.40;;
64313;SDS011;50650;48.180;11.524;2023-05-10T05:46:59;1.20;;;0.40;;
64313;SDS011;50650;48.180;11.524;2023-05-10T05:49:25;1.58;;;0.40;;
64313;SDS011;50650;48.180;11.524;2023-05-10T05:51:52;0.93;;;0.35;;
64313;SDS011;50650;48.180;11.524;2023-05-10T05:54:18;1.10;;;0.55;;
64313;SDS011;50650;48.180;11.524;2023-05-10T05:56:45;1.23;;;0.55;;
64313;SDS011;50650;48.180;11.524;2023-05-10T05:59:11;0.60;;;0.57;;
64313;SDS011;50650;48.180;11.524;2023-05-10T06:01:39;0.93;;;0.52;;
64313;SDS011;50650;48.180;11.524;2023-05-10T06:04:06;1.10;;;0.40;;
64313;SDS011;50650;48.180;11.524;2023-05-10T06:06:33;1.05;;;0.40;;
64313;SDS011;50650;48.180;11.524;2023-05-10T06:08:59;0.70;;;0.40;;
64313;SDS011;50650;48.180;11.524;2023-05-10T06:11:26;1.95;;;0.40;;
64313;SDS011;50650;48.180;11.524;2023-05-10T06:13:52;0.98;;;0.68;;
64313;SDS011;50650;48.180;11.524;2023-05-10T06:16:18;0.60;;;0.40;;
64313;SDS011;50650;48.180;11.524;2023-05-10T06:18:45;3.20;;;0.47;;
64313;SDS011;50650;48.180;11.524;2023-05-10T06:21:13;0.63;;;0.50;;
64313;SDS011;50650;48.180;11.524;2023-05-10T06:23:39;1.40;;;0.40;;
64313;SDS011;50650;48.180;11.524;2023-05-10T06:26:06;2.03;;;0.50;;
64313;SDS011;50650;48.180;11.524;2023-05-10T06:28:32;0.82;;;0.45;;
64313;SDS011;50650;48.180;11.524;2023-05-10T06:30:59;0.80;;;0.40;;
64313;SDS011;50650;48.180;11.524;2023-05-10T06:33:25;0.40;;;0.30;;
64313;SDS011;50650;48.180;11.524;2023-05-10T06:35:52;1.15;;;0.57;;
64313;SDS011;50650;48.180;11.524;2023-05-10T06:38:20;0.88;;;0.50;;
64313;SDS011;50650;48.180;11.524;2023-05-10T06:40:46;0.60;;;0.50;;
64313;SDS011;50650;48.180;11.524;2023-05-10T06:43:13;1.25;;;0.50;;
64313;SDS011;50650;48.180;11.524;2023-05-10T06:45:39;1.30;;;0.50;;
64313;SDS011;50650;48.180;11.524;2023-05-10T06:48:06;2.80;;;0.40;;
64313;SDS011;50650;48.180;11.524;2023-05-10T06:50:33;0.98;;;0.40;;
64313;SDS011;50650;48.180;11.524;2023-05-10T06:53:00;0.98;;;0.40;;
64313;SDS011;50650;48.180;11.524;2023-05-10T06:55:28;2.38;;;0.40;;
64313;SDS011;50650;48.180;11.524;2023-05-10T06:57:55;1.10;;;0.50;;
64313;SDS011;50650;48.180;11.524;2023-05-10T07:00:21;0.85;;;0.50;;
64313;SDS011;50650;48.180;11.524;2023-05-10T07:02:48;0.88;;;0.40;;
64313;SDS011;50650;48.180;11.524;2023-05-10T07:05:14;0.95;;;0.50;;
64313;SDS011;50650;48.180;11.524;2023-05-10T07:07:41;3.45;;;0.43;;
64313;SDS011;50650;48.180;11.524;2023-05-10T07:10:08;0.40;;;0.32;;
64313;SDS011;50650;48.180;11.524;2023-05-10T07:12:36;0.93;;;0.50;;
64313;SDS011;50650;48.180;11.524;2023-05-10T07:15:03;0.50;;;0.50;;
64313;SDS011;50650;48.180;11.524;2023-05-10T07:17:30;3.60;;;0.60;;
64313;SDS011;50650;48.180;11.524;2023-05-10T07:19:58;0.75;;;0.70;;
64313;SDS011;50650;48.180;11.524;2023-05-10T07:22:24;1.67;;;0.50;;
64313;SDS011;50650;48.180;11.524;2023-05-10T07:24:51;2.35;;;0.70;;
64313;SDS011;50650;48.180;11.524;2023-05-10T07:27:17;1.90;;;0.63;;
64313;SDS011;50650;48.180;11.524;2023-05-10T07:29:48;2.70;;;0.63;;
64313;SDS011;50650;48.180;11.524;2023-05-10T07:32:14;1.40;;;0.45;;
64313;SDS011;50650;48.180;11.524;2023-05-10T07:34:41;1.50;;;0.70;;
64313;SDS011;50650;48.180;11.524;2023-05-10T07:37:07;0.82;;;0.57;;
64313;SDS011;50650;48.180;11.524;2023-05-10T07:39:34;2.53;;;0.50;;
64313;SDS011;50650;48.180;11.524;2023-05-10T07:42:01;1.48;;;0.50;;
64313;SDS011;50650;48.180;11.524;2023-05-10T07:44:27;1.15;;;0.60;;
64313;SDS011;50650;48.180;11.524;2023-05-10T07:46:55;2.00;;;0.80;;
64313;SDS011;50650;48.180;11.524;2023-05-10T07:49:22;0.85;;;0.60;;
64313;SDS011;50650;48.180;11.524;2023-05-10T07:51:49;0.93;;;0.50;;
64313;SDS011;50650;48.180;11.524;2023-05-10T07:54:18;1.05;;;0.55;;
64313;SDS011;50650;48.180;11.524;2023-05-10T07:57:06;0.60;;;0.50;;
64313;SDS011;50650;48.180;11.524;2023-05-10T07:59:44;0.98;;;0.45;;
64313;SDS011;50650;48.180;11.524;2023-05-10T08:02:12;2.47;;;0.55;;
64313;SDS011;50650;48.180;11.524;2023-05-10T08:04:39;0.80;;;0.50;;
64313;SDS011;50650;48.180;11.524;2023-05-10T08:07:05;1.48;;;0.50;;
64313;SDS011;50650;48.180;11.524;2023-05-10T08:09:32;1.42;;;0.40;;
64313;SDS011;50650;48.180;11.524;2023-05-10T08:12:00;1.38;;;0.50;;
64313;SDS011;50650;48.180;11.524;2023-05-10T08:14:27;1.60;;;0.50;;
64313;SDS011;50650;48.180;11.524;2023-05-10T08:16:54;0.85;;;0.50;;
64313;SDS011;50650;48.180;11.524;2023-05-10T08:19:22;1.75;;;0.60;;
64313;SDS011;50650;48.180;11.524;2023-05-10T08:21:49;3.28;;;0.70;;
64313;SDS011;50650;48.180;11.524;2023-05-10T08:24:15;3.97;;;0.70;;
64313;SDS011;50650;48.180;11.524;2023-05-10T08:26:42;1.42;;;0.60;;
64313;SDS011;50650;48.180;11.524;2023-05-10T08:29:08;1.45;;;0.50;;
64313;SDS011;50650;48.180;11.524;2023-05-10T08:31:35;2.33;;;0.40;;
64313;SDS011;50650;48.180;11.524;2023-05-10T08:34:01;1.00;;;0.40;;
64313;SDS011;50650;48.180;11.524;2023-05-10T08:36:29;3.75;;;0.70;;
64313;SDS011;50650;48.180;11.524;2023-05-10T08:38:57;2.35;;;0.50;;
64313;SDS011;50650;48.180;11.524;2023-05-10T08:41:23;1.25;;;0.60;;
64313;SDS011;50650;48.180;11.524;2023-05-10T08:43:51;1.05;;;0.40;;
64313;SDS011;50650;48.180;11.524;2023-05-10T08:46:19;0.68;;;0.40;;
64313;SDS011;50650;48.180;11.524;2023-05-10T08:48:46;0.80;;;0.60;;
64313;SDS011;50650;48.180;11.524;2023-05-10T08:51:13;5.68;;;1.90;;
64313;SDS011;50650;48.180;11.524;2023-05-10T08:53:42;3.40;;;2.97;;
64313;SDS011;50650;48.180;11.524;2023-05-10T08:56:09;1.77;;;1.23;;
64313;SDS011;50650;48.180;11.524;2023-05-10T08:58:36;8.38;;;4.57;;
64313;SDS011;50650;48.180;11.524;2023-05-10T09:01:03;17.25;;;11.25;;
64313;SDS011;50650;48.180;11.524;2023-05-10T09:03:29;8.70;;;6.05;;
64313;SDS011;50650;48.180;11.524;2023-05-10T09:05:56;1.13;;;0.73;;
64313;SDS011;50650;48.180;11.524;2023-05-10T09:08:22;3.60;;;1.30;;
64313;SDS011;50650;48.180;11.524;2023-05-10T09:10:52;1.35;;;1.08;;
64313;SDS011;50650;48.180;11.524;2023-05-10T09:13:21;1.73;;;0.60;;
64313;SDS011;50650;48.180;11.524;2023-05-10T09:15:49;4.85;;;4.40;;
64313;SDS011;50650;48.180;11.524;2023-05-10T09:18:16;3.45;;;2.38;;
64313;SDS011;50650;48.180;11.524;2023-05-10T09:20:42;5.97;;;3.90;;
64313;SDS011;50650;48.180;11.524;2023-05-10T09:23:09;1.80;;;0.50;;
64313;SDS011;50650;48.180;11.524;2023-05-10T09:25:38;2.78;;;0.60;;
64313;SDS011;50650;48.180;11.524;2023-05-10T09:28:07;2.00;;;0.60;;
64313;SDS011;50650;48.180;11.524;2023-05-10T09:30:34;1.98;;;0.50;;
64313;SDS011;50650;48.180;11.524;2023-05-10T09:33:01;1.13;;;0.47;;
64313;SDS011;50650;48.180;11.524;2023-05-10T09:35:28;0.70;;;0.25;;
64313;SDS011;50650;48.180;11.524;2023-05-10T09:37:56;1.10;;;0.40;;
64313;SDS011;50650;48.180;11.524;2023-05-10T09:40:27;1.40;;;0.50;;
64313;SDS011;50650;48.180;11.524;2023-05-10T09:42:55;1.23;;;0.20;;
64313;SDS011;50650;48.180;11.524;2023-05-10T09:45:26;1.00;;;0.40;;
64313;SDS011;50650;48.180;11.524;2023-05-10T09:47:53;3.00;;;0.40;;
64313;SDS011;50650;48.180;11.524;2023-05-10T09:50:20;1.83;;;0.40;;
64313;SDS011;50650;48.180;11.524;2023-05-10T09:52:47;0.68;;;0.40;;
64313;SDS011;50650;48.180;11.524;2023-05-10T09:55:15;2.35;;;0.50;;
64313;SDS011;50650;48.180;11.524;2023-05-10T09:57:42;3.47;;;0.40;;
64313;SDS011;50650;48.180;11.524;2023-05-10T10:00:09;1.40;;;0.52;;
64313;SDS011;50650;48.180;11.524;2023-05-10T10:02:37;1.10;;;0.40;;
64313;SDS011;50650;48.180;11.524;2023-05-10T10:05:06;1.85;;;0.30;;
64313;SDS011;50650;48.180;11.524;2023-05-10T10:07:33;1.55;;;0.50;;
64313;SDS011;50650;48.180;11.524;2023-05-10T10:10:00;1.48;;;0.57;;
64313;SDS011;50650;48.180;11.524;2023-05-10T10:12:26;0.35;;;0.30;;
64313;SDS011;50650;48.180;11.524;2023-05-10T10:14:53;1.60;;;0.47;;
64313;SDS011;50650;48.180;11.524;2023-05-10T10:17:19;1.88;;;0.40;;
64313;SDS011;50650;48.180;11.524;2023-05-10T10:19:47;1.15;;;0.45;;
64313;SDS011;50650;48.180;11.524;2023-05-10T10:22:14;0.93;;;0.30;;
64313;SDS011;50650;48.180;11.524;2023-05-10T10:24:41;1.27;;;0.52;;
64313;SDS011;50650;48.180;11.524;2023-05-10T10:27:09;1.10;;;0.50;;
64313;SDS011;50650;48.180;11.524;2023-05-10T10:29:43;2.70;;;0.47;;
64313;SDS011;50650;48.180;11.524;2023-05-10T10:32:19;0.70;;;0.40;;
64313;SDS011;50650;48.180;11.524;2023-05-10T10:34:51;1.20;;;0.50;;
64313;SDS011;50650;48.180;11.524;2023-05-10T10:37:18;2.17;;;0.32;;
64313;SDS011;50650;48.180;11.524;2023-05-10T10:39:44;1.25;;;0.40;;
64313;SDS011;50650;48.180;11.524;2023-05-10T10:42:14;1.55;;;0.40;;
64313;SDS011;50650;48.180;11.524;2023-05-10T10:45:19;2.97;;;0.50;;
64313;SDS011;50650;48.180;11.524;2023-05-10T10:47:46;0.98;;;0.45;;
64313;SDS011;50650;48.180;11.524;2023-05-10T10:50:14;3.20;;;0.50;;
64313;SDS011;50650;48.180;11.524;2023-05-10T10:52:41;2.72;;;1.10;;
64313;SDS011;50650;48.180;11.524;2023-05-10T10:55:09;1.77;;;0.45;;
64313;SDS011;50650;48.180;11.524;2023-05-10T10:57:43;1.55;;;0.65;;
64313;SDS011;50650;48.180;11.524;2023-05-10T11:00:20;0.75;;;0.50;;
64313;SDS011;50650;48.180;11.524;2023-05-10T11:02:49;3.75;;;0.52;;
64313;SDS011;50650;48.180;11.524;2023-05-10T11:05:24;0.68;;;0.30;;
64313;SDS011;50650;48.180;11.524;2023-05-10T11:08:13;1.35;;;0.35;;
64313;SDS011;50650;48.180;11.524;2023-05-10T11:10:48;2.25;;;0.40;;
64313;SDS011;50650;48.180;11.524;2023-05-10T11:13:17;1.13;;;0.47;;
64313;SDS011;50650;48.180;11.524;2023-05-10T11:15:53;3.95;;;0.50;;
64313;SDS011;50650;48.180;11.524;2023-05-10T11:18:23;3.00;;;0.50;;
64313;SDS011;50650;48.180;11.524;2023-05-10T11:20:52;1.25;;;0.77;;
64313;SDS011;50650;48.180;11.524;2023-05-10T11:23:18;1.42;;;0.60;;
64313;SDS011;50650;48.180;11.524;2023-05-10T11:25:46;3.05;;;0.50;;
64313;SDS011;50650;48.180;11.524;2023-05-10T11:28:14;2.33;;;0.63;;
64313;SDS011;50650;48.180;11.524;2023-05-10T11:30:43;3.22;;;0.80;;
64313;SDS011;50650;48.180;11.524;2023-05-10T11:33:14;3.08;;;0.70;;
64313;SDS011;50650;48.180;11.524;2023-05-10T11:35:41;1.45;;;0.68;;
64313;SDS011;50650;48.180;11.524;2023-05-10T11:38:09;2.13;;;0.60;;
64313;SDS011;50650;48.180;11.524;2023-05-10T11:40:36;1.13;;;0.68;;
64313;SDS011;50650;48.180;11.524;2023-05-10T11:43:03;3.67;;;0.80;;
64313;SDS011;50650;48.180;11.524;2023-05-10T11:45:31;2.45;;;0.82;;
64313;SDS011;50650;48.180;11.524;2023-05-10T11:48:01;1.15;;;0.52;;
64313;SDS011;50650;48.180;11.524;2023-05-10T11:50:28;2.22;;;0.80;;
64313;SDS011;50650;48.180;11.524;2023-05-10T11:52:55;1.33;;;0.50;;
64313;SDS011;50650;48.180;11.524;2023-05-10T11:55:23;1.08;;;0.65;;
64313;SDS011;50650;48.180;11.524;2023-05-10T11:57:51;0.90;;;0.40;;
64313;SDS011;50650;48.180;11.524;2023-05-10T12:00:18;1.88;;;0.60;;
64313;SDS011;50650;48.180;11.524;2023-05-10T12:02:44;0.95;;;0.50;;
64313;SDS011;50650;48.180;11.524;2023-05-10T12:05:11;1.50;;;0.47;;
64313;SDS011;50650;48.180;11.524;2023-05-10T12:07:38;0.90;;;0.50;;
64313;SDS011;50650;48.180;11.524;2023-05-10T12:10:05;3.58;;;0.60;;
64313;SDS011;50650;48.180;11.524;2023-05-10T12:12:40;0.70;;;0.60;;
64313;SDS011;50650;48.180;11.524;2023-05-10T12:15:11;3.25;;;0.70;;
64313;SDS011;50650;48.180;11.524;2023-05-10T12:17:38;2.78;;;0.77;;
64313;SDS011;50650;48.180;11.524;2023-05-10T12:20:15;1.55;;;0.75;;
64313;SDS011;50650;48.180;11.524;2023-05-10T12:22:45;9.48;;;2.47;;
64313;SDS011;50650;48.180;11.524;2023-05-10T12:25:13;3.83;;;1.60;;
64313;SDS011;50650;48.180;11.524;2023-05-10T12:27:41;2.05;;;0.93;;
64313;SDS011;50650;48.180;11.524;2023-05-10T12:30:08;3.92;;;1.15;;
64313;SDS011;50650;48.180;11.524;2023-05-10T12:32:38;3.10;;;1.10;;
64313;SDS011;50650;48.180;11.524;2023-05-10T12:35:05;14.30;;;6.18;;
64313;SDS011;50650;48.180;11.524;2023-05-10T12:37:32;10.23;;;3.67;;
64313;SDS011;50650;48.180;11.524;2023-05-10T12:40:00;7.47;;;3.33;;
64313;SDS011;50650;48.180;11.524;2023-05-10T12:42:27;3.40;;;0.93;;
64313;SDS011;50650;48.180;11.524;2023-05-10T12:44:56;3.95;;;1.20;;
64313;SDS011;50650;48.180;11.524;2023-05-10T12:47:22;0.75;;;0.45;;
64313;SDS011;50650;48.180;11.524;2023-05-10T12:49:49;2.10;;;0.60;;
64313;SDS011;50650;48.180;11.524;2023-05-10T12:52:16;1.23;;;0.50;;
64313;SDS011;50650;48.180;11.524;2023-05-10T12:54:42;2.17;;;0.55;;
64313;SDS011;50650;48.180;11.524;2023-05-10T12:57:08;0.85;;;0.45;;
64313;SDS011;50650;48.180;11.524;2023-05-10T12:59:35;1.10;;;0.47;;
64313;SDS011;50650;48.180;11.524;2023-05-10T13:02:03;0.50;;;0.50;;
64313;SDS011;50650;48.180;11.524;2023-05-10T13:04:29;1.02;;;0.50;;
64313;SDS011;50650;48.180;11.524;2023-05-10T13:06:55;1.35;;;0.60;;
64313;SDS011;50650;48.180;11.524;2023-05-10T13:09:23;1.52;;;0.45;;
64313;SDS011;50650;48.180;11.524;2023-05-10T13:11:50;1.42;;;0.60;;
64313;SDS011;50650;48.180;11.524;2023-05-10T13:14:18;1.25;;;0.55;;
64313;SDS011;50650;48.180;11.524;2023-05-10T13:16:45;1.38;;;0.90;;
64313;SDS011;50650;48.180;11.524;2023-05-10T13:19:13;0.90;;;0.60;;
64313;SDS011;50650;48.180;11.524;2023-05-10T13:21:40;1.17;;;0.47;;
64313;SDS011;50650;48.180;11.524;2023-05-10T13:24:07;1.23;;;0.68;;
64313;SDS011;50650;48.180;11.524;2023-05-10T13:26:33;3.00;;;0.70;;
64313;SDS011;50650;48.180;11.524;2023-05-10T13:29:01;1.25;;;0.73;;
64313;SDS011;50650;48.180;11.524;2023-05-10T13:31:27;2.70;;;1.45;;
64313;SDS011;50650;48.180;11.524;2023-05-10T13:33:54;1.67;;;1.00;;
64313;SDS011;50650;48.180;11.524;2023-05-10T13:36:22;3.63;;;1.27;;
64313;SDS011;50650;48.180;11.524;2023-05-10T13:38:49;5.03;;;1.23;;
64313;SDS011;50650;48.180;11.524;2023-05-10T13:41:15;2.20;;;0.85;;
64313;SDS011;50650;48.180;11.524;2023-05-10T13:43:42;2.83;;;0.85;;
64313;SDS011;50650;48.180;11.524;2023-05-10T13:46:08;2.90;;;1.83;;
64313;SDS011;50650;48.180;11.524;2023-05-10T13:48:35;2.65;;;1.38;;
64313;SDS011;50650;48.180;11.524;2023-05-10T13:51:02;1.77;;;1.33;;
64313;SDS011;50650;48.180;11.524;2023-05-10T13:53:30;3.88;;;1.17;;
64313;SDS011;50650;48.180;11.524;2023-05-10T13:55:56;1.63;;;1.05;;
64313;SDS011;50650;48.180;11.524;2023-05-10T13:58:23;1.58;;;1.00;;
64313;SDS011;50650;48.180;11.524;2023-05-10T14:00:49;3.63;;;1.45;;
64313;SDS011;50650;48.180;11.524;2023-05-10T14:03:16;3.53;;;1.25;;
64313;SDS011;50650;48.180;11.524;2023-05-10T14:05:42;2.30;;;1.27;;
64313;SDS011;50650;48.180;11.524;2023-05-10T14:08:09;2.95;;;0.82;;
64313;SDS011;50650;48.180;11.524;2023-05-10T14:10:39;5.72;;;1.05;;
64313;SDS011;50650;48.180;11.524;2023-05-10T14:13:06;3.63;;;0.95;;
64313;SDS011;50650;48.180;11.524;2023-05-10T14:15:32;1.25;;;0.77;;
64313;SDS011;50650;48.180;11.524;2023-05-10T14:17:59;1.52;;;0.77;;
64313;SDS011;50650;48.180;11.524;2023-05-10T14:20:28;2.42;;;0.70;;
64313;SDS011;50650;48.180;11.524;2023-05-10T14:22:54;4.32;;;1.00;;
64313;SDS011;50650;48.180;11.524;2023-05-10T14:25:22;4.65;;;0.80;;
64313;SDS011;50650;48.180;11.524;2023-05-10T14:27:50;3.67;;;0.90;;
64313;SDS011;50650;48.180;11.524;2023-05-10T14:30:22;0.77;;;0.57;;
64313;SDS011;50650;48.180;11.524;2023-05-10T14:32:48;1.80;;;1.13;;
64313;SDS011;50650;48.180;11.524;2023-05-10T14:35:15;1.50;;;0.80;;
64313;SDS011;50650;48.180;11.524;2023-05-10T14:37:41;2.25;;;1.00;;
64313;SDS011;50650;48.180;11.524;2023-05-10T14:40:08;1.20;;;0.90;;
64313;SDS011;50650;48.180;11.524;2023-05-10T14:42:35;2.50;;;0.80;;
64313;SDS011;50650;48.180;11.524;2023-05-10T14:45:03;1.33;;;0.65;;